sensor_id;sensor_type;location;lat;lon;timestamp;P1;durP1;ratioP1;P2;durP2;ratioP2
35518;SDS011;21627;48.216;16.482;2022-08-19T00:00:07;9.15;;;2.92;;
35518;SDS011;21627;48.216;16.482;2022-08-19T00:02:39;9.70;;;1.98;;
35518;SDS011;21627;48.216;16.482;2022-08-19T00:05:15;10.43;;;2.50;;
35518;SDS011;21627;48.216;16.482;2022-08-19T00:07:45;11.85;;;2.35;;
35518;SDS011;21627;48.216;16.482;2022-08-19T00:10:13;14.05;;;2.67;;
35518;SDS011;21627;48.216;16.482;2022-08-19T00:12:42;9.75;;;3.17;;
35518;SDS011;21627;48.216;16.482;2022-08-19T00:15:13;6.22;;;2.25;;
35518;SDS011;21627;48.216;16.482;2022-08-19T00:17:44;6.72;;;2.17;;
35518;SDS011;21627;48.216;16.482;2022-08-19T00:20:13;6.55;;;2.33;;
35518;SDS011;21627;48.216;16.482;2022-08-19T00:22:45;9.02;;;2.15;;
35518;SDS011;21627;48.216;16.482;2022-08-19T00:25:14;9.60;;;2.50;;
35518;SDS011;21627;48.216;16.482;2022-08-19T00:27:42;8.27;;;2.67;;
35518;SDS011;21627;48.216;16.482;2022-08-19T00:30:13;7.78;;;2.30;;
35518;SDS011;21627;48.216;16.482;2022-08-19T00:32:41;11.27;;;2.35;;
35518;SDS011;21627;48.216;16.482;2022-08-19T00:35:08;12.82;;;2.47;;
35518;SDS011;21627;48.216;16.482;2022-08-19T00:37:36;13.90;;;2.50;;
35518;SDS011;21627;48.216;16.482;2022-08-19T00:40:05;12.68;;;2.35;;
35518;SDS011;21627;48.216;16.482;2022-08-19T00:42:33;7.93;;;2.13;;
35518;SDS011;21627;48.216;16.482;2022-08-19T00:45:08;8.10;;;2.40;;
35518;SDS011;21627;48.216;16.482;2022-08-19T00:47:47;8.38;;;1.90;;
35518;SDS011;21627;48.216;16.482;2022-08-19T00:50:15;9.93;;;2.70;;
35518;SDS011;21627;48.216;16.482;2022-08-19T00:52:47;12.27;;;2.45;;
35518;SDS011;21627;48.216;16.482;2022-08-19T00:55:24;10.75;;;3.20;;
35518;SDS011;21627;48.216;16.482;2022-08-19T00:57:56;14.60;;;2.80;;
35518;SDS011;21627;48.216;16.482;2022-08-19T01:00:31;7.13;;;2.53;;
35518;SDS011;21627;48.216;16.482;2022-08-19T01:03:07;8.00;;;3.35;;
35518;SDS011;21627;48.216;16.482;2022-08-19T01:05:39;13.35;;;3.03;;
35518;SDS011;21627;48.216;16.482;2022-08-19T01:08:10;7.75;;;2.50;;
35518;SDS011;21627;48.216;16.482;2022-08-19T01:10:54;15.98;;;3.40;;
35518;SDS011;21627;48.216;16.482;2022-08-19T01:13:27;7.75;;;2.65;;
35518;SDS011;21627;48.216;16.482;2022-08-19T01:16:15;10.70;;;3.25;;
35518;SDS011;21627;48.216;16.482;2022-08-19T01:18:45;7.25;;;2.70;;
35518;SDS011;21627;48.216;16.482;2022-08-19T01:21:18;6.35;;;2.58;;
35518;SDS011;21627;48.216;16.482;2022-08-19T01:23:52;14.73;;;3.72;;
35518;SDS011;21627;48.216;16.482;2022-08-19T01:26:21;10.23;;;3.17;;
35518;SDS011;21627;48.216;16.482;2022-08-19T01:28:53;6.72;;;3.58;;
35518;SDS011;21627;48.216;16.482;2022-08-19T01:31:27;13.90;;;3.47;;
35518;SDS011;21627;48.216;16.482;2022-08-19T01:33:59;10.15;;;3.03;;
35518;SDS011;21627;48.216;16.482;2022-08-19T01:39:04;12.32;;;4.15;;
35518;SDS011;21627;48.216;16.482;2022-08-19T01:41:35;8.05;;;3.25;;
35518;SDS011;21627;48.216;16.482;2022-08-19T01:44:03;6.47;;;3.20;;
35518;SDS011;21627;48.216;16.482;2022-08-19T01:46:45;8.25;;;3.20;;
35518;SDS011;21627;48.216;16.482;2022-08-19T01:49:14;15.48;;;3.40;;
35518;SDS011;21627;48.216;16.482;2022-08-19T01:51:46;11.18;;;2.95;;
35518;SDS011;21627;48.216;16.482;2022-08-19T01:54:16;11.05;;;3.40;;
35518;SDS011;21627;48.216;16.482;2022-08-19T01:56:53;11.05;;;3.40;;
35518;SDS011;21627;48.216;16.482;2022-08-19T01:59:31;12.52;;;3.63;;
35518;SDS011;21627;48.216;16.482;2022-08-19T02:01:59;13.80;;;3.63;;
35518;SDS011;21627;48.216;16.482;2022-08-19T02:04:26;8.10;;;2.97;;
35518;SDS011;21627;48.216;16.482;2022-08-19T02:06:53;12.68;;;4.25;;
35518;SDS011;21627;48.216;16.482;2022-08-19T02:09:20;9.10;;;2.97;;
35518;SDS011;21627;48.216;16.482;2022-08-19T02:11:48;9.68;;;2.78;;
35518;SDS011;21627;48.216;16.482;2022-08-19T02:14:15;10.90;;;3.40;;
35518;SDS011;21627;48.216;16.482;2022-08-19T02:16:42;8.40;;;2.90;;
35518;SDS011;21627;48.216;16.482;2022-08-19T02:19:09;17.33;;;3.08;;
35518;SDS011;21627;48.216;16.482;2022-08-19T02:21:36;8.57;;;3.50;;
35518;SDS011;21627;48.216;16.482;2022-08-19T02:24:04;8.20;;;2.92;;
35518;SDS011;21627;48.216;16.482;2022-08-19T02:26:34;7.28;;;2.97;;
35518;SDS011;21627;48.216;16.482;2022-08-19T02:29:02;9.50;;;2.78;;
35518;SDS011;21627;48.216;16.482;2022-08-19T02:31:29;11.23;;;3.33;;
35518;SDS011;21627;48.216;16.482;2022-08-19T02:33:56;9.73;;;2.78;;
35518;SDS011;21627;48.216;16.482;2022-08-19T02:36:24;7.07;;;2.80;;
35518;SDS011;21627;48.216;16.482;2022-08-19T02:38:53;12.38;;;2.90;;
35518;SDS011;21627;48.216;16.482;2022-08-19T02:41:26;9.10;;;2.90;;
35518;SDS011;21627;48.216;16.482;2022-08-19T02:43:58;7.70;;;2.70;;
35518;SDS011;21627;48.216;16.482;2022-08-19T02:46:48;8.55;;;2.35;;
35518;SDS011;21627;48.216;16.482;2022-08-19T02:49:18;9.05;;;3.00;;
35518;SDS011;21627;48.216;16.482;2022-08-19T02:51:46;8.88;;;2.88;;
35518;SDS011;21627;48.216;16.482;2022-08-19T02:54:14;8.30;;;3.22;;
35518;SDS011;21627;48.216;16.482;2022-08-19T02:56:42;11.50;;;3.38;;
35518;SDS011;21627;48.216;16.482;2022-08-19T02:59:11;9.10;;;3.25;;
35518;SDS011;21627;48.216;16.482;2022-08-19T03:01:39;7.75;;;3.40;;
35518;SDS011;21627;48.216;16.482;2022-08-19T03:04:09;8.48;;;2.72;;
35518;SDS011;21627;48.216;16.482;2022-08-19T03:06:39;16.13;;;3.17;;
35518;SDS011;21627;48.216;16.482;2022-08-19T03:09:12;15.60;;;2.83;;
35518;SDS011;21627;48.216;16.482;2022-08-19T03:11:43;8.70;;;2.85;;
35518;SDS011;21627;48.216;16.482;2022-08-19T03:14:10;9.52;;;3.20;;
35518;SDS011;21627;48.216;16.482;2022-08-19T03:16:56;7.88;;;3.17;;
35518;SDS011;21627;48.216;16.482;2022-08-19T03:19:24;12.17;;;3.30;;
35518;SDS011;21627;48.216;16.482;2022-08-19T03:21:51;6.97;;;2.95;;
35518;SDS011;21627;48.216;16.482;2022-08-19T03:24:19;14.63;;;3.22;;
35518;SDS011;21627;48.216;16.482;2022-08-19T03:26:51;11.48;;;3.00;;
35518;SDS011;21627;48.216;16.482;2022-08-19T03:29:25;10.25;;;3.55;;
35518;SDS011;21627;48.216;16.482;2022-08-19T03:31:56;7.95;;;2.42;;
35518;SDS011;21627;48.216;16.482;2022-08-19T03:34:30;13.18;;;2.83;;
35518;SDS011;21627;48.216;16.482;2022-08-19T03:37:03;9.98;;;3.65;;
35518;SDS011;21627;48.216;16.482;2022-08-19T03:39:38;9.38;;;3.35;;
35518;SDS011;21627;48.216;16.482;2022-08-19T03:42:08;5.78;;;2.58;;
35518;SDS011;21627;48.216;16.482;2022-08-19T03:44:56;7.30;;;2.90;;
35518;SDS011;21627;48.216;16.482;2022-08-19T03:47:25;9.07;;;3.45;;
35518;SDS011;21627;48.216;16.482;2022-08-19T03:49:52;10.70;;;2.65;;
35518;SDS011;21627;48.216;16.482;2022-08-19T03:52:19;7.30;;;2.53;;
35518;SDS011;21627;48.216;16.482;2022-08-19T03:54:46;10.15;;;3.22;;
35518;SDS011;21627;48.216;16.482;2022-08-19T03:57:13;6.20;;;3.17;;
35518;SDS011;21627;48.216;16.482;2022-08-19T03:59:40;9.85;;;2.97;;
35518;SDS011;21627;48.216;16.482;2022-08-19T04:02:09;10.07;;;3.10;;
35518;SDS011;21627;48.216;16.482;2022-08-19T04:04:39;13.68;;;4.28;;
35518;SDS011;21627;48.216;16.482;2022-08-19T04:07:10;38.10;;;5.35;;
35518;SDS011;21627;48.216;16.482;2022-08-19T04:09:41;49.03;;;7.28;;
35518;SDS011;21627;48.216;16.482;2022-08-19T04:12:08;30.35;;;6.53;;
35518;SDS011;21627;48.216;16.482;2022-08-19T04:14:35;48.03;;;9.18;;
35518;SDS011;21627;48.216;16.482;2022-08-19T04:17:03;36.47;;;8.85;;
35518;SDS011;21627;48.216;16.482;2022-08-19T04:19:32;32.47;;;8.02;;
35518;SDS011;21627;48.216;16.482;2022-08-19T04:22:01;41.75;;;8.25;;
35518;SDS011;21627;48.216;16.482;2022-08-19T04:24:34;28.27;;;6.07;;
35518;SDS011;21627;48.216;16.482;2022-08-19T04:27:01;30.80;;;6.03;;
35518;SDS011;21627;48.216;16.482;2022-08-19T04:29:30;19.58;;;4.82;;
35518;SDS011;21627;48.216;16.482;2022-08-19T04:31:57;14.52;;;4.05;;
35518;SDS011;21627;48.216;16.482;2022-08-19T04:34:34;13.35;;;4.15;;
35518;SDS011;21627;48.216;16.482;2022-08-19T04:37:01;10.55;;;4.05;;
35518;SDS011;21627;48.216;16.482;2022-08-19T04:39:41;8.48;;;3.45;;
35518;SDS011;21627;48.216;16.482;2022-08-19T04:42:30;10.35;;;3.38;;
35518;SDS011;21627;48.216;16.482;2022-08-19T04:45:08;9.35;;;4.35;;
35518;SDS011;21627;48.216;16.482;2022-08-19T04:47:43;10.45;;;3.63;;
35518;SDS011;21627;48.216;16.482;2022-08-19T04:50:23;10.77;;;4.00;;
35518;SDS011;21627;48.216;16.482;2022-08-19T04:52:54;7.10;;;4.30;;
35518;SDS011;21627;48.216;16.482;2022-08-19T04:55:22;8.50;;;4.05;;
35518;SDS011;21627;48.216;16.482;2022-08-19T04:57:52;9.32;;;3.85;;
35518;SDS011;21627;48.216;16.482;2022-08-19T05:00:20;10.77;;;4.10;;
35518;SDS011;21627;48.216;16.482;2022-08-19T05:02:48;9.52;;;4.15;;
35518;SDS011;21627;48.216;16.482;2022-08-19T05:05:15;14.43;;;4.45;;
35518;SDS011;21627;48.216;16.482;2022-08-19T05:07:43;9.25;;;4.10;;
35518;SDS011;21627;48.216;16.482;2022-08-19T05:10:10;11.07;;;3.88;;
35518;SDS011;21627;48.216;16.482;2022-08-19T05:12:39;11.50;;;4.50;;
35518;SDS011;21627;48.216;16.482;2022-08-19T05:15:06;11.55;;;4.00;;
35518;SDS011;21627;48.216;16.482;2022-08-19T05:17:37;11.70;;;4.68;;
35518;SDS011;21627;48.216;16.482;2022-08-19T05:20:24;9.40;;;5.65;;
35518;SDS011;21627;48.216;16.482;2022-08-19T05:23:27;7.82;;;4.28;;
35518;SDS011;21627;48.216;16.482;2022-08-19T05:25:57;8.25;;;4.45;;
35518;SDS011;21627;48.216;16.482;2022-08-19T05:28:25;10.70;;;4.55;;
35518;SDS011;21627;48.216;16.482;2022-08-19T05:30:52;8.85;;;4.57;;
35518;SDS011;21627;48.216;16.482;2022-08-19T05:33:24;11.00;;;5.55;;
35518;SDS011;21627;48.216;16.482;2022-08-19T05:35:52;16.27;;;4.75;;
35518;SDS011;21627;48.216;16.482;2022-08-19T05:38:19;13.07;;;4.97;;
35518;SDS011;21627;48.216;16.482;2022-08-19T05:40:46;9.30;;;4.82;;
35518;SDS011;21627;48.216;16.482;2022-08-19T05:43:15;12.48;;;4.35;;
35518;SDS011;21627;48.216;16.482;2022-08-19T05:45:43;10.48;;;4.82;;
35518;SDS011;21627;48.216;16.482;2022-08-19T05:48:12;10.23;;;4.72;;
35518;SDS011;21627;48.216;16.482;2022-08-19T05:50:40;9.10;;;5.25;;
35518;SDS011;21627;48.216;16.482;2022-08-19T05:53:08;14.38;;;5.10;;
35518;SDS011;21627;48.216;16.482;2022-08-19T05:55:35;8.65;;;5.60;;
35518;SDS011;21627;48.216;16.482;2022-08-19T05:58:04;10.27;;;5.95;;
35518;SDS011;21627;48.216;16.482;2022-08-19T06:00:34;9.95;;;6.22;;
35518;SDS011;21627;48.216;16.482;2022-08-19T06:03:03;8.57;;;6.30;;
35518;SDS011;21627;48.216;16.482;2022-08-19T06:05:37;10.68;;;6.18;;
35518;SDS011;21627;48.216;16.482;2022-08-19T06:08:20;13.73;;;6.15;;
35518;SDS011;21627;48.216;16.482;2022-08-19T06:13:49;11.95;;;6.57;;
35518;SDS011;21627;48.216;16.482;2022-08-19T06:16:25;10.55;;;6.50;;
35518;SDS011;21627;48.216;16.482;2022-08-19T06:18:54;14.48;;;5.78;;
35518;SDS011;21627;48.216;16.482;2022-08-19T06:21:27;11.30;;;6.20;;
35518;SDS011;21627;48.216;16.482;2022-08-19T06:23:57;25.63;;;8.77;;
35518;SDS011;21627;48.216;16.482;2022-08-19T06:26:26;8.98;;;5.45;;
35518;SDS011;21627;48.216;16.482;2022-08-19T06:28:56;11.63;;;6.05;;
35518;SDS011;21627;48.216;16.482;2022-08-19T06:31:26;12.75;;;5.28;;
35518;SDS011;21627;48.216;16.482;2022-08-19T06:34:00;7.63;;;5.43;;
35518;SDS011;21627;48.216;16.482;2022-08-19T06:36:33;7.70;;;5.88;;
35518;SDS011;21627;48.216;16.482;2022-08-19T06:39:12;8.88;;;5.82;;
35518;SDS011;21627;48.216;16.482;2022-08-19T06:41:46;8.65;;;6.00;;
35518;SDS011;21627;48.216;16.482;2022-08-19T06:44:19;11.63;;;6.15;;
35518;SDS011;21627;48.216;16.482;2022-08-19T06:46:51;7.15;;;5.40;;
35518;SDS011;21627;48.216;16.482;2022-08-19T06:49:20;15.23;;;5.45;;
35518;SDS011;21627;48.216;16.482;2022-08-19T06:51:51;8.88;;;5.97;;
35518;SDS011;21627;48.216;16.482;2022-08-19T06:54:19;11.05;;;6.07;;
35518;SDS011;21627;48.216;16.482;2022-08-19T06:56:49;12.13;;;6.05;;
35518;SDS011;21627;48.216;16.482;2022-08-19T06:59:20;13.77;;;5.82;;
35518;SDS011;21627;48.216;16.482;2022-08-19T07:01:55;6.43;;;5.05;;
35518;SDS011;21627;48.216;16.482;2022-08-19T07:04:25;8.40;;;5.68;;
35518;SDS011;21627;48.216;16.482;2022-08-19T07:06:58;8.10;;;5.05;;
35518;SDS011;21627;48.216;16.482;2022-08-19T07:09:47;9.15;;;5.50;;
35518;SDS011;21627;48.216;16.482;2022-08-19T07:12:26;9.27;;;5.47;;
35518;SDS011;21627;48.216;16.482;2022-08-19T07:15:04;11.52;;;5.50;;
35518;SDS011;21627;48.216;16.482;2022-08-19T07:17:34;8.93;;;6.25;;
35518;SDS011;21627;48.216;16.482;2022-08-19T07:20:07;17.52;;;6.30;;
35518;SDS011;21627;48.216;16.482;2022-08-19T07:22:37;8.38;;;5.47;;
35518;SDS011;21627;48.216;16.482;2022-08-19T07:25:08;8.63;;;4.90;;
35518;SDS011;21627;48.216;16.482;2022-08-19T07:27:36;7.78;;;4.85;;
35518;SDS011;21627;48.216;16.482;2022-08-19T07:30:05;6.97;;;5.43;;
35518;SDS011;21627;48.216;16.482;2022-08-19T07:32:37;8.65;;;5.38;;
35518;SDS011;21627;48.216;16.482;2022-08-19T07:35:05;6.53;;;5.45;;
35518;SDS011;21627;48.216;16.482;2022-08-19T07:37:35;11.25;;;5.63;;
35518;SDS011;21627;48.216;16.482;2022-08-19T07:40:04;9.30;;;5.32;;
35518;SDS011;21627;48.216;16.482;2022-08-19T07:42:33;11.90;;;5.55;;
35518;SDS011;21627;48.216;16.482;2022-08-19T07:45:00;8.40;;;5.07;;
35518;SDS011;21627;48.216;16.482;2022-08-19T07:47:28;10.45;;;5.43;;
35518;SDS011;21627;48.216;16.482;2022-08-19T07:50:16;12.02;;;5.13;;
35518;SDS011;21627;48.216;16.482;2022-08-19T07:52:46;9.30;;;4.63;;
35518;SDS011;21627;48.216;16.482;2022-08-19T07:55:18;14.02;;;4.93;;
35518;SDS011;21627;48.216;16.482;2022-08-19T07:58:12;7.80;;;4.13;;
35518;SDS011;21627;48.216;16.482;2022-08-19T08:00:43;9.52;;;4.32;;
35518;SDS011;21627;48.216;16.482;2022-08-19T08:03:13;8.48;;;4.20;;
35518;SDS011;21627;48.216;16.482;2022-08-19T08:05:43;9.80;;;4.53;;
35518;SDS011;21627;48.216;16.482;2022-08-19T08:08:35;14.45;;;4.53;;
35518;SDS011;21627;48.216;16.482;2022-08-19T08:11:23;10.90;;;4.18;;
35518;SDS011;21627;48.216;16.482;2022-08-19T08:13:54;11.05;;;4.30;;
35518;SDS011;21627;48.216;16.482;2022-08-19T08:16:27;8.80;;;4.63;;
35518;SDS011;21627;48.216;16.482;2022-08-19T08:18:57;6.68;;;3.95;;
35518;SDS011;21627;48.216;16.482;2022-08-19T08:21:26;8.50;;;4.22;;
35518;SDS011;21627;48.216;16.482;2022-08-19T08:23:53;21.92;;;7.57;;
35518;SDS011;21627;48.216;16.482;2022-08-19T08:26:25;10.80;;;4.68;;
35518;SDS011;21627;48.216;16.482;2022-08-19T08:28:53;10.85;;;4.63;;
35518;SDS011;21627;48.216;16.482;2022-08-19T08:31:20;10.55;;;4.43;;
35518;SDS011;21627;48.216;16.482;2022-08-19T08:33:48;20.10;;;4.88;;
35518;SDS011;21627;48.216;16.482;2022-08-19T08:36:16;9.77;;;4.10;;
35518;SDS011;21627;48.216;16.482;2022-08-19T08:38:43;14.93;;;4.28;;
35518;SDS011;21627;48.216;16.482;2022-08-19T08:43:49;12.70;;;4.18;;
35518;SDS011;21627;48.216;16.482;2022-08-19T08:49:39;11.18;;;4.68;;
35518;SDS011;21627;48.216;16.482;2022-08-19T08:52:24;9.90;;;4.10;;
35518;SDS011;21627;48.216;16.482;2022-08-19T08:55:13;10.05;;;4.03;;
35518;SDS011;21627;48.216;16.482;2022-08-19T09:02:58;7.57;;;4.30;;
35518;SDS011;21627;48.216;16.482;2022-08-19T09:05:40;12.80;;;4.13;;
35518;SDS011;21627;48.216;16.482;2022-08-19T09:14:34;10.38;;;4.10;;
35518;SDS011;21627;48.216;16.482;2022-08-19T09:17:17;8.30;;;4.00;;
35518;SDS011;21627;48.216;16.482;2022-08-19T09:19:55;8.00;;;3.80;;
35518;SDS011;21627;48.216;16.482;2022-08-19T09:22:45;10.10;;;3.58;;
35518;SDS011;21627;48.216;16.482;2022-08-19T09:25:16;11.60;;;3.35;;
35518;SDS011;21627;48.216;16.482;2022-08-19T09:27:54;12.27;;;3.40;;
35518;SDS011;21627;48.216;16.482;2022-08-19T09:30:32;7.93;;;3.63;;
35518;SDS011;21627;48.216;16.482;2022-08-19T09:33:12;10.18;;;4.13;;
35518;SDS011;21627;48.216;16.482;2022-08-19T09:35:39;8.07;;;3.13;;
35518;SDS011;21627;48.216;16.482;2022-08-19T09:38:19;13.15;;;3.40;;
35518;SDS011;21627;48.216;16.482;2022-08-19T09:40:48;8.60;;;3.40;;
35518;SDS011;21627;48.216;16.482;2022-08-19T09:43:16;10.75;;;3.42;;
35518;SDS011;21627;48.216;16.482;2022-08-19T09:45:59;14.15;;;3.30;;
35518;SDS011;21627;48.216;16.482;2022-08-19T09:48:27;9.88;;;3.75;;
35518;SDS011;21627;48.216;16.482;2022-08-19T09:51:01;11.00;;;3.55;;
35518;SDS011;21627;48.216;16.482;2022-08-19T09:53:40;15.43;;;3.70;;
35518;SDS011;21627;48.216;16.482;2022-08-19T09:56:10;5.03;;;3.20;;
35518;SDS011;21627;48.216;16.482;2022-08-19T09:58:38;7.93;;;3.42;;
35518;SDS011;21627;48.216;16.482;2022-08-19T10:01:07;7.82;;;3.88;;
35518;SDS011;21627;48.216;16.482;2022-08-19T10:03:35;9.55;;;3.70;;
35518;SDS011;21627;48.216;16.482;2022-08-19T10:06:04;12.32;;;3.08;;
35518;SDS011;21627;48.216;16.482;2022-08-19T10:08:42;10.98;;;3.00;;
35518;SDS011;21627;48.216;16.482;2022-08-19T10:11:16;16.95;;;3.80;;
35518;SDS011;21627;48.216;16.482;2022-08-19T10:13:59;12.93;;;3.38;;
35518;SDS011;21627;48.216;16.482;2022-08-19T10:16:28;9.95;;;3.40;;
35518;SDS011;21627;48.216;16.482;2022-08-19T10:18:56;16.13;;;3.80;;
35518;SDS011;21627;48.216;16.482;2022-08-19T10:21:28;14.02;;;3.65;;
35518;SDS011;21627;48.216;16.482;2022-08-19T10:24:00;7.75;;;3.70;;
35518;SDS011;21627;48.216;16.482;2022-08-19T10:26:32;12.43;;;3.33;;
35518;SDS011;21627;48.216;16.482;2022-08-19T10:29:04;15.07;;;3.88;;
35518;SDS011;21627;48.216;16.482;2022-08-19T10:31:35;11.02;;;3.13;;
35518;SDS011;21627;48.216;16.482;2022-08-19T10:34:23;9.57;;;3.45;;
35518;SDS011;21627;48.216;16.482;2022-08-19T10:36:53;11.18;;;3.70;;
35518;SDS011;21627;48.216;16.482;2022-08-19T10:39:27;15.15;;;4.00;;
35518;SDS011;21627;48.216;16.482;2022-08-19T10:42:08;16.45;;;4.18;;
35518;SDS011;21627;48.216;16.482;2022-08-19T10:44:40;11.50;;;3.65;;
35518;SDS011;21627;48.216;16.482;2022-08-19T10:47:08;16.65;;;4.50;;
35518;SDS011;21627;48.216;16.482;2022-08-19T10:49:53;11.98;;;3.65;;
35518;SDS011;21627;48.216;16.482;2022-08-19T10:52:40;9.75;;;3.13;;
35518;SDS011;21627;48.216;16.482;2022-08-19T10:55:15;14.88;;;4.15;;
35518;SDS011;21627;48.216;16.482;2022-08-19T10:58:15;8.90;;;3.97;;
35518;SDS011;21627;48.216;16.482;2022-08-19T11:00:55;11.13;;;3.70;;
35518;SDS011;21627;48.216;16.482;2022-08-19T11:03:25;7.22;;;3.83;;
35518;SDS011;21627;48.216;16.482;2022-08-19T11:05:59;7.55;;;3.63;;
35518;SDS011;21627;48.216;16.482;2022-08-19T11:08:33;10.00;;;3.65;;
35518;SDS011;21627;48.216;16.482;2022-08-19T11:11:04;14.10;;;3.85;;
35518;SDS011;21627;48.216;16.482;2022-08-19T11:13:34;23.27;;;5.10;;
35518;SDS011;21627;48.216;16.482;2022-08-19T11:16:18;15.48;;;5.00;;
35518;SDS011;21627;48.216;16.482;2022-08-19T11:18:53;9.90;;;4.97;;
35518;SDS011;21627;48.216;16.482;2022-08-19T11:21:26;14.65;;;4.20;;
35518;SDS011;21627;48.216;16.482;2022-08-19T11:24:01;12.45;;;3.83;;
35518;SDS011;21627;48.216;16.482;2022-08-19T11:26:33;18.70;;;4.22;;
35518;SDS011;21627;48.216;16.482;2022-08-19T11:29:01;18.27;;;3.88;;
35518;SDS011;21627;48.216;16.482;2022-08-19T11:31:34;13.18;;;3.30;;
35518;SDS011;21627;48.216;16.482;2022-08-19T11:34:03;12.40;;;3.58;;
35518;SDS011;21627;48.216;16.482;2022-08-19T11:36:33;18.95;;;4.65;;
35518;SDS011;21627;48.216;16.482;2022-08-19T11:39:04;20.88;;;4.70;;
35518;SDS011;21627;48.216;16.482;2022-08-19T11:41:33;24.40;;;3.85;;
35518;SDS011;21627;48.216;16.482;2022-08-19T11:44:00;20.33;;;4.40;;
35518;SDS011;21627;48.216;16.482;2022-08-19T11:46:29;12.10;;;3.30;;
35518;SDS011;21627;48.216;16.482;2022-08-19T11:48:58;10.63;;;3.67;;
35518;SDS011;21627;48.216;16.482;2022-08-19T11:51:30;12.13;;;3.70;;
35518;SDS011;21627;48.216;16.482;2022-08-19T11:53:58;17.98;;;4.00;;
35518;SDS011;21627;48.216;16.482;2022-08-19T11:56:29;26.80;;;4.78;;
35518;SDS011;21627;48.216;16.482;2022-08-19T11:58:57;13.55;;;3.80;;
35518;SDS011;21627;48.216;16.482;2022-08-19T12:01:27;11.45;;;3.83;;
35518;SDS011;21627;48.216;16.482;2022-08-19T12:03:58;13.65;;;4.82;;
35518;SDS011;21627;48.216;16.482;2022-08-19T12:06:30;17.05;;;5.20;;
35518;SDS011;21627;48.216;16.482;2022-08-19T12:09:02;14.55;;;4.93;;
35518;SDS011;21627;48.216;16.482;2022-08-19T12:11:38;9.70;;;4.68;;
35518;SDS011;21627;48.216;16.482;2022-08-19T12:14:10;11.02;;;4.63;;
35518;SDS011;21627;48.216;16.482;2022-08-19T12:16:43;11.18;;;4.25;;
35518;SDS011;21627;48.216;16.482;2022-08-19T12:19:19;14.65;;;4.60;;
35518;SDS011;21627;48.216;16.482;2022-08-19T12:21:48;10.93;;;4.18;;
35518;SDS011;21627;48.216;16.482;2022-08-19T12:24:16;16.23;;;4.40;;
35518;SDS011;21627;48.216;16.482;2022-08-19T12:26:50;16.83;;;4.07;;
35518;SDS011;21627;48.216;16.482;2022-08-19T12:29:19;16.08;;;3.90;;
35518;SDS011;21627;48.216;16.482;2022-08-19T12:31:49;15.30;;;4.15;;
35518;SDS011;21627;48.216;16.482;2022-08-19T12:34:17;8.93;;;3.70;;
35518;SDS011;21627;48.216;16.482;2022-08-19T12:36:46;10.73;;;3.85;;
35518;SDS011;21627;48.216;16.482;2022-08-19T12:39:16;8.15;;;3.53;;
35518;SDS011;21627;48.216;16.482;2022-08-19T12:41:43;16.70;;;3.97;;
35518;SDS011;21627;48.216;16.482;2022-08-19T12:44:21;17.40;;;3.25;;
35518;SDS011;21627;48.216;16.482;2022-08-19T12:46:55;17.08;;;4.30;;
35518;SDS011;21627;48.216;16.482;2022-08-19T12:49:23;10.93;;;3.63;;
35518;SDS011;21627;48.216;16.482;2022-08-19T12:52:11;13.88;;;3.47;;
35518;SDS011;21627;48.216;16.482;2022-08-19T12:54:43;11.90;;;4.00;;
35518;SDS011;21627;48.216;16.482;2022-08-19T12:57:10;10.02;;;3.80;;
35518;SDS011;21627;48.216;16.482;2022-08-19T12:59:38;7.80;;;3.75;;
35518;SDS011;21627;48.216;16.482;2022-08-19T13:02:06;14.13;;;4.10;;
35518;SDS011;21627;48.216;16.482;2022-08-19T13:04:34;14.60;;;4.25;;
35518;SDS011;21627;48.216;16.482;2022-08-19T13:07:04;11.75;;;4.35;;
35518;SDS011;21627;48.216;16.482;2022-08-19T13:09:31;14.77;;;3.92;;
35518;SDS011;21627;48.216;16.482;2022-08-19T13:11:58;12.15;;;4.25;;
35518;SDS011;21627;48.216;16.482;2022-08-19T13:14:28;9.07;;;3.85;;
35518;SDS011;21627;48.216;16.482;2022-08-19T13:17:02;13.57;;;4.65;;
35518;SDS011;21627;48.216;16.482;2022-08-19T13:19:29;13.13;;;4.43;;
35518;SDS011;21627;48.216;16.482;2022-08-19T13:22:00;15.70;;;3.75;;
35518;SDS011;21627;48.216;16.482;2022-08-19T13:24:31;12.88;;;4.82;;
35518;SDS011;21627;48.216;16.482;2022-08-19T13:27:00;14.77;;;4.32;;
35518;SDS011;21627;48.216;16.482;2022-08-19T13:29:28;12.30;;;3.85;;
35518;SDS011;21627;48.216;16.482;2022-08-19T13:32:14;19.52;;;4.10;;
35518;SDS011;21627;48.216;16.482;2022-08-19T13:35:01;15.07;;;3.97;;
35518;SDS011;21627;48.216;16.482;2022-08-19T13:37:32;17.20;;;3.65;;
35518;SDS011;21627;48.216;16.482;2022-08-19T13:40:14;14.13;;;3.30;;
35518;SDS011;21627;48.216;16.482;2022-08-19T13:42:50;13.07;;;4.10;;
35518;SDS011;21627;48.216;16.482;2022-08-19T13:45:28;10.60;;;3.60;;
35518;SDS011;21627;48.216;16.482;2022-08-19T13:47:58;20.63;;;3.47;;
35518;SDS011;21627;48.216;16.482;2022-08-19T13:50:30;11.45;;;3.30;;
35518;SDS011;21627;48.216;16.482;2022-08-19T13:52:57;9.48;;;3.20;;
35518;SDS011;21627;48.216;16.482;2022-08-19T13:55:25;12.25;;;3.50;;
35518;SDS011;21627;48.216;16.482;2022-08-19T13:57:54;15.23;;;3.53;;
35518;SDS011;21627;48.216;16.482;2022-08-19T14:00:25;18.48;;;4.28;;
35518;SDS011;21627;48.216;16.482;2022-08-19T14:02:58;12.77;;;3.75;;
35518;SDS011;21627;48.216;16.482;2022-08-19T14:05:29;7.80;;;3.40;;
35518;SDS011;21627;48.216;16.482;2022-08-19T14:08:01;14.10;;;3.97;;
35518;SDS011;21627;48.216;16.482;2022-08-19T14:10:28;20.42;;;4.10;;
35518;SDS011;21627;48.216;16.482;2022-08-19T14:12:58;16.10;;;3.40;;
35518;SDS011;21627;48.216;16.482;2022-08-19T14:15:37;8.27;;;4.05;;
35518;SDS011;21627;48.216;16.482;2022-08-19T14:18:04;17.20;;;5.50;;
35518;SDS011;21627;48.216;16.482;2022-08-19T14:20:33;20.98;;;3.92;;
35518;SDS011;21627;48.216;16.482;2022-08-19T14:23:02;13.73;;;4.00;;
35518;SDS011;21627;48.216;16.482;2022-08-19T14:25:32;13.60;;;3.80;;
35518;SDS011;21627;48.216;16.482;2022-08-19T14:28:03;18.98;;;4.15;;
35518;SDS011;21627;48.216;16.482;2022-08-19T14:30:34;14.65;;;3.88;;
35518;SDS011;21627;48.216;16.482;2022-08-19T14:33:07;14.88;;;3.47;;
35518;SDS011;21627;48.216;16.482;2022-08-19T14:35:34;18.83;;;3.78;;
35518;SDS011;21627;48.216;16.482;2022-08-19T14:38:03;10.15;;;4.00;;
35518;SDS011;21627;48.216;16.482;2022-08-19T14:40:32;15.05;;;4.30;;
35518;SDS011;21627;48.216;16.482;2022-08-19T14:43:02;12.40;;;3.22;;
35518;SDS011;21627;48.216;16.482;2022-08-19T14:45:36;11.55;;;3.55;;
35518;SDS011;21627;48.216;16.482;2022-08-19T14:48:07;13.15;;;3.65;;
35518;SDS011;21627;48.216;16.482;2022-08-19T14:50:45;12.15;;;3.45;;
35518;SDS011;21627;48.216;16.482;2022-08-19T14:53:12;19.02;;;3.42;;
35518;SDS011;21627;48.216;16.482;2022-08-19T14:55:40;20.67;;;3.83;;
35518;SDS011;21627;48.216;16.482;2022-08-19T14:58:18;9.05;;;3.17;;
35518;SDS011;21627;48.216;16.482;2022-08-19T15:01:01;19.38;;;3.78;;
35518;SDS011;21627;48.216;16.482;2022-08-19T15:03:29;9.98;;;3.03;;
35518;SDS011;21627;48.216;16.482;2022-08-19T15:05:58;18.70;;;3.25;;
35518;SDS011;21627;48.216;16.482;2022-08-19T15:08:28;13.02;;;3.00;;
35518;SDS011;21627;48.216;16.482;2022-08-19T15:10:57;6.75;;;3.15;;
35518;SDS011;21627;48.216;16.482;2022-08-19T15:13:26;18.08;;;3.25;;
35518;SDS011;21627;48.216;16.482;2022-08-19T15:15:54;7.03;;;2.80;;